Time;durP1;ratioP1;P1;durP2;ratioP2;P2;SDS_P1;SDS_P2;PMS_P1;PMS_P2;Temp;Humidity;BMP_temperature;BMP_pressure;BME280_temperature;BME280_humidity;BME280_pressure;Samples;Min_cycle;Max_cycle;Signal;HPM_P1;HPM_P2
2021/12/17 00:00:44;;;;;;;;;;;;;;;;;;5050297;28;20791;-76
2021/12/17 00:03:22;;;;;;;;;;;;;;;;;;5050700;28;19915;-75
2021/12/17 00:06:11;;;;;;;;;;;;;;;;;;5048924;28;19917;-75
2021/12/17 00:08:37;;;;;;;;;;;;;;;;;;5051896;28;19920;-76
2021/12/17 00:11:03;;;;;;;;;;;;;;;;;;5050109;28;19912;-75
2021/12/17 00:13:29;;;;;;;;;;;;;;;;;;5051525;28;19920;-75
2021/12/17 00:15:55;;;;;;;;;;;;;;;;;;5050487;28;19909;-75
2021/12/17 00:18:36;;;;;;;;;;;;;;;;;;5050395;28;19912;-75
2021/12/17 00:43:51;;;;;;;;;;;;;;;;;;5050816;28;19959;-75
2021/12/17 00:48:24;;;;;;;;;;;;;;;;;;5051004;28;20117;-76
2021/12/17 00:48:41;;;;;;;;;;;;;;;;;;5047782;28;19919;-76
2021/12/17 00:51:41;;;;;;;;;;;;;;;;;;5038189;28;19913;-76
2021/12/17 00:53:57;;;;;;;;;;;;;;;;;;5047304;28;20303;-75
2021/12/17 00:56:23;;;;;;;;;;;;;;;;;;5051846;28;19919;-75
2021/12/17 00:58:49;;;;;;;;;;;;;;;;;;5053980;28;20317;-76
2021/12/17 01:01:15;;;;;;;;;;;;;;;;;;5054334;28;19913;-75
2021/12/17 01:03:40;;;;;;;;;;;;;;;;;;5053333;28;19913;-76
2021/12/17 01:06:06;;;;;;;;;;;;;;;;;;5047964;28;19916;-76
2021/12/17 01:08:32;;;;;;;;;;;;;;;;;;5055220;28;19947;-75
2021/12/17 01:10:58;;;;;;;;;;;;;;;;;;5046211;28;20004;-76
2021/12/17 01:13:24;;;;;;;;;;;;;;;;;;5052173;28;19934;-75
2021/12/17 01:15:50;;;;;;;;;;;;;;;;;;5054848;28;20292;-76
2021/12/17 01:18:19;;;;;;;;;;;;;;;;;;5053758;28;19945;-76
2021/12/17 01:36:19;;;;;;;;;;;;;;;;;;5054611;28;19915;-75
2021/12/17 01:44:01;;;;;;;;;;;;;;;;;;5054931;28;20007;-76
2021/12/17 01:46:27;;;;;;;;;;;;;;;;;;5049309;28;19936;-76
2021/12/17 01:49:01;;;;;;;;;;;;;;;;;;5034721;28;20253;-75
2021/12/17 01:59:20;;;;;;;;;;;;;;;;;;5051933;28;19959;-75
2021/12/17 01:59:42;;;;;;;;;;;;;;;;;;5050512;28;19912;-75
2021/12/17 02:02:08;;;;;;;;;;;;;;;;;;5044954;28;20369;-76
2021/12/17 02:04:34;;;;;;;;;;;;;;;;;;5054202;28;19935;-76
2021/12/17 02:07:00;;;;;;;;;;;;;;;;;;5053925;28;19915;-75
2021/12/17 02:20:21;;;;;;;;;;;;;;;;;;5053773;28;20035;-75
2021/12/17 02:28:44;;;;;;;;;;;;;;;;;;5053912;28;20300;-76
2021/12/17 02:29:10;;;;;;;;;;;;;;;;;;5043142;28;21279;-76
2021/12/17 02:31:23;;;;;;;;;;;;;;;;;;5050017;28;19908;-75
2021/12/17 02:33:49;;;;;;;;;;;;;;;;;;5049370;28;19916;-76
2021/12/17 02:36:19;;;;;;;;;;;;;;;;;;5053725;28;19974;-76
2021/12/17 02:38:45;;;;;;;;;;;;;;;;;;5052712;28;20402;-75
2021/12/17 02:46:40;;;;;;;;;;;;;;;;;;5053602;28;20379;-76
2021/12/17 02:49:06;;;;;;;;;;;;;;;;;;5051846;28;19909;-76
2021/12/17 02:51:37;;;;;;;;;;;;;;;;;;5053178;28;19999;-75
2021/12/17 02:54:02;;;;;;;;;;;;;;;;;;5053273;28;19917;-75
2021/12/17 02:56:28;;;;;;;;;;;;;;;;;;5052105;28;19913;-76
2021/12/17 02:58:54;;;;;;;;;;;;;;;;;;5053521;28;19958;-76
2021/12/17 03:01:20;;;;;;;;;;;;;;;;;;5051865;28;19909;-75
2021/12/17 03:03:47;;;;;;;;;;;;;;;;;;5052513;28;19963;-76
2021/12/17 03:06:13;;;;;;;;;;;;;;;;;;5052886;28;19912;-76
2021/12/17 03:08:40;;;;;;;;;;;;;;;;;;5051652;28;20538;-76
2021/12/17 03:11:06;;;;;;;;;;;;;;;;;;5053525;28;19913;-76
2021/12/17 03:13:36;;;;;;;;;;;;;;;;;;5052282;28;19945;-76
2021/12/17 03:16:25;;;;;;;;;;;;;;;;;;5052551;28;19913;-76
2021/12/17 03:19:02;;;;;;;;;;;;;;;;;;5050529;28;19913;-76
2021/12/17 03:24:13;;;;;;;;;;;;;;;;;;5048949;28;19966;-76
2021/12/17 03:26:39;;;;;;;;;;;;;;;;;;5049708;28;19952;-76
2021/12/17 03:29:04;;;;;;;;;;;;;;;;;;5044628;28;19940;-76
2021/12/17 03:31:30;;;;;;;;;;;;;;;;;;5052253;28;20464;-76
2021/12/17 03:34:15;;;;;;;;;;;;;;;;;;5050522;28;19908;-76
2021/12/17 03:36:41;;;;;;;;;;;;;;;;;;5033353;28;20619;-76
2021/12/17 03:39:06;;;;;;;;;;;;;;;;;;5036480;28;19976;-76
2021/12/17 03:41:46;;;;;;;;;;;;;;;;;;5048057;28;19913;-75
2021/12/17 03:44:11;;;;;;;;;;;;;;;;;;5049368;28;19952;-76
2021/12/17 03:46:37;;;;;;;;;;;;;;;;;;5049981;28;19959;-76
2021/12/17 03:49:04;;;;;;;;;;;;;;;;;;5048526;28;19908;-76
2021/12/17 03:51:29;;;;;;;;;;;;;;;;;;5049796;28;19913;-76
2021/12/17 03:53:55;;;;;;;;;;;;;;;;;;5048456;28;20260;-76
2021/12/17 03:56:21;;;;;;;;;;;;;;;;;;5048361;28;20042;-76
2021/12/17 03:58:49;;;;;;;;;;;;;;;;;;5049359;28;19958;-76
2021/12/17 04:01:15;;;;;;;;;;;;;;;;;;5049548;28;20006;-76
2021/12/17 04:03:41;;;;;;;;;;;;;;;;;;5048505;28;19932;-76
2021/12/17 04:06:07;;;;;;;;;;;;;;;;;;5050416;28;19913;-76
2021/12/17 04:08:33;;;;;;;;;;;;;;;;;;5051324;28;20005;-76
2021/12/17 04:11:07;;;;;;;;;;;;;;;;;;5050262;28;20318;-76
2021/12/17 04:13:36;;;;;;;;;;;;;;;;;;5049965;28;19913;-76
2021/12/17 04:16:07;;;;;;;;;;;;;;;;;;5051943;28;19949;-76
2021/12/17 04:18:33;;;;;;;;;;;;;;;;;;5050591;28;19988;-76
2021/12/17 04:20:59;;;;;;;;;;;;;;;;;;5051995;28;20547;-76
2021/12/17 04:23:25;;;;;;;;;;;;;;;;;;5051619;28;19927;-76
2021/12/17 04:25:51;;;;;;;;;;;;;;;;;;5048948;28;19921;-76
2021/12/17 04:28:17;;;;;;;;;;;;;;;;;;5051158;28;19935;-76
2021/12/17 04:30:44;;;;;;;;;;;;;;;;;;5046223;28;19959;-75
2021/12/17 04:33:10;;;;;;;;;;;;;;;;;;5031916;28;19910;-76
2021/12/17 04:35:37;;;;;;;;;;;;;;;;;;5031648;28;19996;-76
2021/12/17 04:38:05;;;;;;;;;;;;;;;;;;5033378;28;19913;-76
2021/12/17 04:40:31;;;;;;;;;;;;;;;;;;5051269;28;20702;-76
2021/12/17 04:46:14;;;;;;;;;;;;;;;;;;5029211;28;19919;-76
2021/12/17 04:59:39;;;;;;;;;;;;;;;;;;5055484;28;19919;-76
2021/12/17 05:02:05;;;;;;;;;;;;;;;;;;5050794;28;19999;-76
2021/12/17 05:04:31;;;;;;;;;;;;;;;;;;5051483;28;20408;-76
2021/12/17 05:06:56;;;;;;;;;;;;;;;;;;5051338;28;19916;-76
2021/12/17 05:09:48;;;;;;;;;;;;;;;;;;5049331;28;20000;-76
2021/12/17 05:20:28;;;;;;;;;;;;;;;;;;5046333;28;19920;-76
2021/12/17 05:22:58;;;;;;;;;;;;;;;;;;5034604;28;19978;-75
2021/12/17 05:25:26;;;;;;;;;;;;;;;;;;5050607;28;19956;-76
2021/12/17 05:27:52;;;;;;;;;;;;;;;;;;5049400;28;19923;-76
2021/12/17 05:30:18;;;;;;;;;;;;;;;;;;5049999;28;19909;-76
2021/12/17 05:32:43;;;;;;;;;;;;;;;;;;5049552;28;20003;-76
2021/12/17 05:35:09;;;;;;;;;;;;;;;;;;5049295;28;19913;-76
2021/12/17 05:37:35;;;;;;;;;;;;;;;;;;5050042;28;19956;-76
2021/12/17 05:40:01;;;;;;;;;;;;;;;;;;5050185;28;19920;-76
2021/12/17 05:42:27;;;;;;;;;;;;;;;;;;5053056;28;19908;-76
2021/12/17 05:44:58;;;;;;;;;;;;;;;;;;5054548;28;19936;-76
2021/12/17 05:47:24;;;;;;;;;;;;;;;;;;5054868;28;19926;-76
2021/12/17 05:49:50;;;;;;;;;;;;;;;;;;5054714;28;19909;-76
2021/12/17 05:52:16;;;;;;;;;;;;;;;;;;5053076;28;19915;-76
2021/12/17 05:54:41;;;;;;;;;;;;;;;;;;5053824;28;20687;-76
2021/12/17 05:57:07;;;;;;;;;;;;;;;;;;5051818;28;19913;-76
2021/12/17 05:59:35;;;;;;;;;;;;;;;;;;5053033;28;20000;-76
2021/12/17 06:02:03;;;;;;;;;;;;;;;;;;5054506;28;20307;-76
2021/12/17 06:04:29;;;;;;;;;;;;;;;;;;5054428;28;19916;-76
2021/12/17 06:06:55;;;;;;;;;;;;;;;;;;5054230;28;19943;-76
2021/12/17 06:09:21;;;;;;;;;;;;;;;;;;5048685;28;19917;-76
2021/12/17 06:11:47;;;;;;;;;;;;;;;;;;5049981;28;19910;-76
2021/12/17 06:14:12;;;;;;;;;;;;;;;;;;5052254;28;20357;-76
2021/12/17 06:16:38;;;;;;;;;;;;;;;;;;5053171;28;19959;-76
2021/12/17 06:19:04;;;;;;;;;;;;;;;;;;5054264;28;19913;-76
2021/12/17 06:21:30;;;;;;;;;;;;;;;;;;5053064;28;19948;-77
2021/12/17 06:23:56;;;;;;;;;;;;;;;;;;5053831;28;19959;-76
2021/12/17 06:26:22;;;;;;;;;;;;;;;;;;5052701;28;19912;-76
2021/12/17 06:31:33;;;;;;;;;;;;;;;;;;5049074;28;19920;-76
2021/12/17 06:33:58;;;;;;;;;;;;;;;;;;5044623;28;19917;-76
2021/12/17 06:36:24;;;;;;;;;;;;;;;;;;5034143;28;20020;-76
2021/12/17 06:38:50;;;;;;;;;;;;;;;;;;5033802;28;19913;-76
2021/12/17 06:41:16;;;;;;;;;;;;;;;;;;5033980;28;20395;-76
2021/12/17 06:43:44;;;;;;;;;;;;;;;;;;5033348;28;20010;-76
2021/12/17 06:48:38;;;;;;;;;;;;;;;;;;5052910;28;19962;-76
2021/12/17 06:59:44;;;;;;;;;;;;;;;;;;5052855;28;20597;-76
2021/12/17 07:10:42;;;;;;;;;;;;;;;;;;5052565;28;19916;-76
2021/12/17 07:35:12;;;;;;;;;;;;;;;;;;5049379;28;19962;-76
2021/12/17 07:39:58;;;;;;;;;;;;;;;;;;5046490;28;19947;-76
2021/12/17 07:42:25;;;;;;;;;;;;;;;;;;5051768;28;19913;-77
2021/12/17 07:44:51;;;;;;;;;;;;;;;;;;5050755;28;19917;-76
2021/12/17 07:47:17;;;;;;;;;;;;;;;;;;5050997;28;19912;-76
2021/12/17 07:49:43;;;;;;;;;;;;;;;;;;5052197;28;19916;-76
2021/12/17 07:52:08;;;;;;;;;;;;;;;;;;5046579;28;19917;-75
2021/12/17 07:54:34;;;;;;;;;;;;;;;;;;5042074;28;20261;-76
2021/12/17 07:57:00;;;;;;;;;;;;;;;;;;5048942;28;19967;-76
2021/12/17 07:59:26;;;;;;;;;;;;;;;;;;5049070;28;19999;-75
2021/12/17 08:01:52;;;;;;;;;;;;;;;;;;5050828;28;19962;-76
2021/12/17 08:04:18;;;;;;;;;;;;;;;;;;5050243;28;19917;-76
2021/12/17 08:06:44;;;;;;;;;;;;;;;;;;5052018;28;19923;-76
2021/12/17 08:09:10;;;;;;;;;;;;;;;;;;5050655;28;19909;-75
2021/12/17 08:11:39;;;;;;;;;;;;;;;;;;5051577;28;19913;-76
2021/12/17 08:14:10;;;;;;;;;;;;;;;;;;5040503;28;19919;-76
2021/12/17 08:16:58;;;;;;;;;;;;;;;;;;5065443;28;20528;-76
2021/12/17 08:27:26;;;;;;;;;;;;;;;;;;5049645;28;19912;-79
2021/12/17 08:30:09;;;;;;;;;;;;;;;;;;5049327;28;19913;-77
2021/12/17 08:32:34;;;;;;;;;;;;;;;;;;5047597;28;19913;-75
2021/12/17 08:35:02;;;;;;;;;;;;;;;;;;5048186;28;19919;-75
2021/12/17 08:37:29;;;;;;;;;;;;;;;;;;5050705;28;19948;-75
2021/12/17 08:39:55;;;;;;;;;;;;;;;;;;5050947;28;19932;-72
2021/12/17 08:42:20;;;;;;;;;;;;;;;;;;5050373;28;19909;-73
2021/12/17 08:44:46;;;;;;;;;;;;;;;;;;5050710;28;20019;-74
2021/12/17 08:47:12;;;;;;;;;;;;;;;;;;5050255;28;19917;-74
2021/12/17 08:49:40;;;;;;;;;;;;;;;;;;5050443;28;19955;-74
2021/12/17 08:52:06;;;;;;;;;;;;;;;;;;5048921;28;20669;-74
2021/12/17 08:54:32;;;;;;;;;;;;;;;;;;5050487;28;19975;-74
2021/12/17 08:56:58;;;;;;;;;;;;;;;;;;5048715;28;20727;-74
2021/12/17 08:59:24;;;;;;;;;;;;;;;;;;5049163;28;20006;-74
2021/12/17 09:01:49;;;;;;;;;;;;;;;;;;5050391;28;19909;-74
2021/12/17 09:04:15;;;;;;;;;;;;;;;;;;5050238;28;20261;-74
2021/12/17 09:06:41;;;;;;;;;;;;;;;;;;5050477;28;19979;-74
2021/12/17 09:09:07;;;;;;;;;;;;;;;;;;5050372;28;19980;-74
2021/12/17 09:11:33;;;;;;;;;;;;;;;;;;5050580;28;19995;-74
2021/12/17 09:13:59;;;;;;;;;;;;;;;;;;5048830;28;19935;-75
2021/12/17 09:16:25;;;;;;;;;;;;;;;;;;5050685;28;19913;-74
2021/12/17 09:18:51;;;;;;;;;;;;;;;;;;5053023;28;20381;-74
2021/12/17 09:21:16;;;;;;;;;;;;;;;;;;5054514;28;19909;-74
2021/12/17 09:23:42;;;;;;;;;;;;;;;;;;5054122;28;19928;-74
2021/12/17 09:26:08;;;;;;;;;;;;;;;;;;5052088;28;19920;-74
2021/12/17 09:28:34;;;;;;;;;;;;;;;;;;5054025;28;19912;-74
2021/12/17 09:31:00;;;;;;;;;;;;;;;;;;5053184;28;19909;-74
2021/12/17 09:33:26;;;;;;;;;;;;;;;;;;5053694;28;19955;-73
2021/12/17 09:35:52;;;;;;;;;;;;;;;;;;5054172;28;19913;-75
2021/12/17 09:38:18;;;;;;;;;;;;;;;;;;5054518;28;19916;-74
2021/12/17 09:40:44;;;;;;;;;;;;;;;;;;5053827;28;20003;-75
2021/12/17 09:43:10;;;;;;;;;;;;;;;;;;5053297;28;19994;-74
2021/12/17 09:45:36;;;;;;;;;;;;;;;;;;5054209;28;19919;-74
2021/12/17 09:48:02;;;;;;;;;;;;;;;;;;5053942;28;19917;-74
2021/12/17 09:50:28;;;;;;;;;;;;;;;;;;5054407;28;20024;-74
2021/12/17 09:52:54;;;;;;;;;;;;;;;;;;5053715;28;19919;-74
2021/12/17 09:55:19;;;;;;;;;;;;;;;;;;5043425;28;20671;-74
2021/12/17 09:57:45;;;;;;;;;;;;;;;;;;5045684;28;19916;-74
2021/12/17 10:00:11;;;;;;;;;;;;;;;;;;5053676;28;19960;-74
2021/12/17 10:02:37;;;;;;;;;;;;;;;;;;5051609;28;19916;-74
2021/12/17 10:05:03;;;;;;;;;;;;;;;;;;5052683;28;19916;-75
2021/12/17 10:07:29;;;;;;;;;;;;;;;;;;5051766;28;19916;-75
2021/12/17 10:09:55;;;;;;;;;;;;;;;;;;5048823;28;19912;-74
2021/12/17 10:12:21;;;;;;;;;;;;;;;;;;5051908;28;19924;-73
2021/12/17 10:14:46;;;;;;;;;;;;;;;;;;5044473;28;19913;-76
2021/12/17 10:17:12;;;;;;;;;;;;;;;;;;5050570;28;19919;-75
2021/12/17 10:19:38;;;;;;;;;;;;;;;;;;5063246;28;19913;-75
2021/12/17 10:22:04;;;;;;;;;;;;;;;;;;5053779;28;19943;-74
2021/12/17 10:24:30;;;;;;;;;;;;;;;;;;5053372;28;19921;-74
2021/12/17 10:26:56;;;;;;;;;;;;;;;;;;5052838;28;20017;-74
2021/12/17 10:29:22;;;;;;;;;;;;;;;;;;5047827;28;19920;-75
2021/12/17 10:31:47;;;;;;;;;;;;;;;;;;5047014;28;21773;-74
2021/12/17 10:34:13;;;;;;;;;;;;;;;;;;5046358;28;19921;-74
2021/12/17 10:36:39;;;;;;;;;;;;;;;;;;5047896;28;19913;-74
2021/12/17 10:39:05;;;;;;;;;;;;;;;;;;5048628;28;19995;-75
2021/12/17 10:41:33;;;;;;;;;;;;;;;;;;5044016;28;20018;-75
2021/12/17 10:44:00;;;;;;;;;;;;;;;;;;5048569;28;19920;-74
2021/12/17 10:46:30;;;;;;;;;;;;;;;;;;5043536;28;20011;-74
2021/12/17 10:49:01;;;;;;;;;;;;;;;;;;5048130;28;19913;-75
2021/12/17 10:53:56;;;;;;;;;;;;;;;;;;5052336;28;20563;-75
2021/12/17 10:56:22;;;;;;;;;;;;;;;;;;5047713;28;19921;-75
2021/12/17 10:58:48;;;;;;;;;;;;;;;;;;5053237;28;19909;-74
2021/12/17 11:01:14;;;;;;;;;;;;;;;;;;5048245;28;19963;-75
2021/12/17 11:03:40;;;;;;;;;;;;;;;;;;5050177;28;20391;-77
2021/12/17 11:06:06;;;;;;;;;;;;;;;;;;5051521;28;19978;-75
2021/12/17 11:08:37;;;;;;;;;;;;;;;;;;5045199;28;19940;-74
2021/12/17 11:11:09;;;;;;;;;;;;;;;;;;5053220;28;19912;-74
2021/12/17 11:13:35;;;;;;;;;;;;;;;;;;5052684;28;19916;-74
2021/12/17 11:16:01;;;;;;;;;;;;;;;;;;5050292;28;20533;-75
2021/12/17 11:18:27;;;;;;;;;;;;;;;;;;5051230;28;20433;-75
2021/12/17 11:20:55;;;;;;;;;;;;;;;;;;5050219;28;19920;-75
2021/12/17 11:23:22;;;;;;;;;;;;;;;;;;5051163;28;19921;-75
2021/12/17 11:25:53;;;;;;;;;;;;;;;;;;5050932;28;19913;-75
2021/12/17 11:28:19;;;;;;;;;;;;;;;;;;5052889;28;19913;-74
2021/12/17 11:30:46;;;;;;;;;;;;;;;;;;5049822;28;19913;-75
2021/12/17 11:33:12;;;;;;;;;;;;;;;;;;5040995;28;19923;-75
2021/12/17 11:35:38;;;;;;;;;;;;;;;;;;5052955;28;19909;-75
2021/12/17 11:38:04;;;;;;;;;;;;;;;;;;5067367;28;19909;-75
2021/12/17 11:40:30;;;;;;;;;;;;;;;;;;5045924;28;19912;-75
2021/12/17 11:42:59;;;;;;;;;;;;;;;;;;5045324;28;19994;-74
2021/12/17 11:45:28;;;;;;;;;;;;;;;;;;5043808;28;20447;-74
2021/12/17 11:47:54;;;;;;;;;;;;;;;;;;5062229;28;20015;-74
2021/12/17 11:50:20;;;;;;;;;;;;;;;;;;5062246;28;19921;-74
2021/12/17 11:52:48;;;;;;;;;;;;;;;;;;5050422;28;19928;-75
2021/12/17 11:55:14;;;;;;;;;;;;;;;;;;5050032;28;19919;-74
2021/12/17 11:57:40;;;;;;;;;;;;;;;;;;5048255;28;20455;-74
2021/12/17 12:00:07;;;;;;;;;;;;;;;;;;5051626;28;19913;-74
2021/12/17 12:02:33;;;;;;;;;;;;;;;;;;5044924;28;19955;-75
2021/12/17 12:05:04;;;;;;;;;;;;;;;;;;5051429;28;19913;-73
2021/12/17 12:07:33;;;;;;;;;;;;;;;;;;5050275;28;20373;-75
2021/12/17 12:09:59;;;;;;;;;;;;;;;;;;5064345;28;19920;-74
2021/12/17 12:12:30;;;;;;;;;;;;;;;;;;5051051;28;19909;-74
2021/12/17 12:14:56;;;;;;;;;;;;;;;;;;5053658;28;19909;-74
2021/12/17 12:17:38;;;;;;;;;;;;;;;;;;5041002;28;20691;-74
2021/12/17 12:20:07;;;;;;;;;;;;;;;;;;5043312;28;20338;-81
2021/12/17 12:22:43;;;;;;;;;;;;;;;;;;5051581;28;19925;-76
2021/12/17 12:25:11;;;;;;;;;;;;;;;;;;5071269;28;20499;-76
2021/12/17 12:27:37;;;;;;;;;;;;;;;;;;5084993;28;19935;-75
2021/12/17 12:30:03;;;;;;;;;;;;;;;;;;5050248;28;19909;-75
2021/12/17 12:32:30;;;;;;;;;;;;;;;;;;5066644;28;20411;-76
2021/12/17 12:34:57;;;;;;;;;;;;;;;;;;5067347;28;19935;-75
2021/12/17 12:37:23;;;;;;;;;;;;;;;;;;5051977;28;19923;-75
2021/12/17 12:39:53;;;;;;;;;;;;;;;;;;5067539;28;19971;-75
2021/12/17 12:42:24;;;;;;;;;;;;;;;;;;5051786;28;19909;-75
2021/12/17 12:44:52;;;;;;;;;;;;;;;;;;5067169;28;20349;-75
2021/12/17 12:47:18;;;;;;;;;;;;;;;;;;5051157;28;20363;-76
2021/12/17 12:49:51;;;;;;;;;;;;;;;;;;5057437;28;19917;-76
2021/12/17 12:52:17;;;;;;;;;;;;;;;;;;5071338;28;19916;-75
2021/12/17 12:54:44;;;;;;;;;;;;;;;;;;5082826;28;19909;-75
2021/12/17 12:57:10;;;;;;;;;;;;;;;;;;5049228;28;19912;-75
2021/12/17 12:59:36;;;;;;;;;;;;;;;;;;5046910;28;19913;-76
2021/12/17 13:02:02;;;;;;;;;;;;;;;;;;5050990;28;19956;-75
2021/12/17 13:04:31;;;;;;;;;;;;;;;;;;5052143;28;19913;-75
2021/12/17 13:06:57;;;;;;;;;;;;;;;;;;5052313;28;19916;-75
2021/12/17 13:09:23;;;;;;;;;;;;;;;;;;5052023;28;19920;-75
2021/12/17 13:11:49;;;;;;;;;;;;;;;;;;5049627;28;19913;-74
2021/12/17 13:14:18;;;;;;;;;;;;;;;;;;5049941;28;19966;-74
2021/12/17 13:16:54;;;;;;;;;;;;;;;;;;5050332;28;19909;-74
2021/12/17 13:22:26;;;;;;;;;;;;;;;;;;5043928;28;20663;-74
2021/12/17 13:24:50;;;;;;;;;;;;;;;;;;5052501;28;20532;-74
2021/12/17 13:27:17;;;;;;;;;;;;;;;;;;5045891;28;19935;-75
2021/12/17 13:29:44;;;;;;;;;;;;;;;;;;5047387;28;20311;-75
2021/12/17 13:32:10;;;;;;;;;;;;;;;;;;5045262;28;20003;-75
2021/12/17 13:34:36;;;;;;;;;;;;;;;;;;5052565;28;20761;-75
2021/12/17 13:37:01;;;;;;;;;;;;;;;;;;5045328;28;21395;-75
2021/12/17 13:39:27;;;;;;;;;;;;;;;;;;5043911;28;20000;-75
2021/12/17 13:41:53;;;;;;;;;;;;;;;;;;5063418;28;19913;-75
2021/12/17 13:44:19;;;;;;;;;;;;;;;;;;5044622;28;19920;-75
2021/12/17 13:46:45;;;;;;;;;;;;;;;;;;5046119;28;19947;-75
2021/12/17 13:49:11;;;;;;;;;;;;;;;;;;5047449;28;19918;-75
2021/12/17 13:51:37;;;;;;;;;;;;;;;;;;5051584;28;19999;-75
2021/12/17 13:54:03;;;;;;;;;;;;;;;;;;5063901;28;19920;-75
2021/12/17 13:56:29;;;;;;;;;;;;;;;;;;5047787;28;19923;-75
2021/12/17 13:58:55;;;;;;;;;;;;;;;;;;5049169;28;19917;-75
2021/12/17 14:01:21;;;;;;;;;;;;;;;;;;5052796;28;19955;-75
2021/12/17 14:03:46;;;;;;;;;;;;;;;;;;5048950;28;19999;-74
2021/12/17 14:06:22;;;;;;;;;;;;;;;;;;5052083;28;20369;-75
2021/12/17 14:08:48;;;;;;;;;;;;;;;;;;5053442;28;19915;-75
2021/12/17 14:11:15;;;;;;;;;;;;;;;;;;5053657;28;20292;-74
2021/12/17 14:13:41;;;;;;;;;;;;;;;;;;5049243;28;19927;-74
2021/12/17 14:16:06;;;;;;;;;;;;;;;;;;5048949;28;19913;-74
2021/12/17 14:18:33;;;;;;;;;;;;;;;;;;5051896;28;19923;-74
2021/12/17 14:20:59;;;;;;;;;;;;;;;;;;5051862;28;19961;-75
2021/12/17 14:23:25;;;;;;;;;;;;;;;;;;5047943;28;20416;-75
2021/12/17 14:25:52;;;;;;;;;;;;;;;;;;5062262;28;19913;-74
2021/12/17 14:28:19;;;;;;;;;;;;;;;;;;5044318;28;19947;-75
2021/12/17 14:30:45;;;;;;;;;;;;;;;;;;5050698;28;19995;-75
2021/12/17 14:33:11;;;;;;;;;;;;;;;;;;5047855;28;20059;-75
2021/12/17 14:35:37;;;;;;;;;;;;;;;;;;5047168;28;19928;-75
2021/12/17 14:38:03;;;;;;;;;;;;;;;;;;5049146;28;20833;-74
2021/12/17 14:40:34;;;;;;;;;;;;;;;;;;5049985;28;20427;-73
2021/12/17 14:43:00;;;;;;;;;;;;;;;;;;5065523;28;19913;-74
2021/12/17 14:45:26;;;;;;;;;;;;;;;;;;5047350;28;19917;-78
2021/12/17 14:47:58;;;;;;;;;;;;;;;;;;5051323;28;19958;-74
2021/12/17 15:02:03;;;;;;;;;;;;;;;;;;5019103;28;19917;-75
2021/12/17 15:04:28;;;;;;;;;;;;;;;;;;5050788;28;20716;-74
2021/12/17 15:06:54;;;;;;;;;;;;;;;;;;5061950;28;20004;-74
2021/12/17 15:09:20;;;;;;;;;;;;;;;;;;5045467;28;20015;-73
2021/12/17 15:11:46;;;;;;;;;;;;;;;;;;5038033;28;20062;-73
2021/12/17 15:14:11;;;;;;;;;;;;;;;;;;5042741;28;19917;-74
2021/12/17 15:16:37;;;;;;;;;;;;;;;;;;5042708;28;20368;-74
2021/12/17 15:19:03;;;;;;;;;;;;;;;;;;5049358;28;19935;-74
2021/12/17 15:21:29;;;;;;;;;;;;;;;;;;5046512;28;19928;-74
2021/12/17 15:23:55;;;;;;;;;;;;;;;;;;5049572;28;19927;-74
2021/12/17 15:26:21;;;;;;;;;;;;;;;;;;5044718;28;19916;-74
2021/12/17 15:28:47;;;;;;;;;;;;;;;;;;5045430;28;20464;-73
2021/12/17 15:31:12;;;;;;;;;;;;;;;;;;5043290;28;20388;-74
2021/12/17 15:33:38;;;;;;;;;;;;;;;;;;5043085;28;19917;-74
2021/12/17 15:36:04;;;;;;;;;;;;;;;;;;5047767;28;19912;-74
2021/12/17 15:38:30;;;;;;;;;;;;;;;;;;5058763;28;19920;-74
2021/12/17 15:40:56;;;;;;;;;;;;;;;;;;5046069;28;19913;-75
2021/12/17 15:43:22;;;;;;;;;;;;;;;;;;5047008;28;19983;-75
2021/12/17 15:45:48;;;;;;;;;;;;;;;;;;5049917;28;19943;-76
2021/12/17 15:48:14;;;;;;;;;;;;;;;;;;5064219;28;19956;-75
2021/12/17 15:50:40;;;;;;;;;;;;;;;;;;5052294;28;19919;-76
2021/12/17 15:53:06;;;;;;;;;;;;;;;;;;5052048;28;20338;-76
2021/12/17 15:55:32;;;;;;;;;;;;;;;;;;5052271;28;19915;-75
2021/12/17 15:57:58;;;;;;;;;;;;;;;;;;5049316;28;19927;-75
2021/12/17 16:00:24;;;;;;;;;;;;;;;;;;5050825;28;19909;-75
2021/12/17 16:02:49;;;;;;;;;;;;;;;;;;5050333;28;20031;-75
2021/12/17 16:05:16;;;;;;;;;;;;;;;;;;5051853;28;19920;-76
2021/12/17 16:07:41;;;;;;;;;;;;;;;;;;5050430;28;19919;-76
2021/12/17 16:23:19;;;;;;;;;;;;;;;;;;5050088;28;19927;-74
2021/12/17 16:25:45;;;;;;;;;;;;;;;;;;5050019;28;19917;-74
2021/12/17 16:28:11;;;;;;;;;;;;;;;;;;5047968;28;19944;-75
2021/12/17 16:30:37;;;;;;;;;;;;;;;;;;5047540;28;19966;-75
2021/12/17 16:33:02;;;;;;;;;;;;;;;;;;5050604;28;20479;-75
2021/12/17 16:35:28;;;;;;;;;;;;;;;;;;5050606;28;19916;-75
2021/12/17 16:37:54;;;;;;;;;;;;;;;;;;5050596;28;19909;-75
2021/12/17 16:40:20;;;;;;;;;;;;;;;;;;5049454;28;19912;-75
2021/12/17 16:42:46;;;;;;;;;;;;;;;;;;5050929;28;19909;-74
2021/12/17 16:45:31;;;;;;;;;;;;;;;;;;5050269;28;19921;-74
2021/12/17 16:47:59;;;;;;;;;;;;;;;;;;5050591;28;19991;-74
2021/12/17 16:50:26;;;;;;;;;;;;;;;;;;5050603;28;19909;-75
2021/12/17 16:52:52;;;;;;;;;;;;;;;;;;5050560;28;19940;-75
2021/12/17 16:55:20;;;;;;;;;;;;;;;;;;5050277;28;20380;-75
2021/12/17 16:57:46;;;;;;;;;;;;;;;;;;5047533;28;19909;-75
2021/12/17 17:00:12;;;;;;;;;;;;;;;;;;5050640;28;20030;-75
2021/12/17 17:02:37;;;;;;;;;;;;;;;;;;5049029;28;19913;-74
2021/12/17 17:05:04;;;;;;;;;;;;;;;;;;5050072;28;20428;-75
2021/12/17 17:07:30;;;;;;;;;;;;;;;;;;5050516;28;20000;-75
2021/12/17 17:09:56;;;;;;;;;;;;;;;;;;5048803;28;20000;-74
2021/12/17 17:12:25;;;;;;;;;;;;;;;;;;5049160;28;20015;-75
2021/12/17 17:14:51;;;;;;;;;;;;;;;;;;5048981;28;19915;-74
2021/12/17 17:17:16;;;;;;;;;;;;;;;;;;5065106;28;19936;-74
2021/12/17 17:19:42;;;;;;;;;;;;;;;;;;5048875;28;19920;-74
2021/12/17 17:22:08;;;;;;;;;;;;;;;;;;5047757;28;19991;-74
2021/12/17 17:24:34;;;;;;;;;;;;;;;;;;5049286;28;19976;-74
2021/12/17 17:27:00;;;;;;;;;;;;;;;;;;5046668;28;19959;-74
2021/12/17 17:29:26;;;;;;;;;;;;;;;;;;5049386;28;20381;-74
2021/12/17 17:31:52;;;;;;;;;;;;;;;;;;5049810;28;19921;-75
2021/12/17 17:34:19;;;;;;;;;;;;;;;;;;5049512;28;19939;-73
2021/12/17 17:36:45;;;;;;;;;;;;;;;;;;5049564;28;20307;-74
2021/12/17 17:39:11;;;;;;;;;;;;;;;;;;5051611;28;19970;-74
2021/12/17 17:41:37;;;;;;;;;;;;;;;;;;5051728;28;19913;-73
2021/12/17 17:44:03;;;;;;;;;;;;;;;;;;5053144;28;19913;-73
2021/12/17 17:46:29;;;;;;;;;;;;;;;;;;5051547;28;19978;-73
2021/12/17 17:48:54;;;;;;;;;;;;;;;;;;5053082;28;19916;-73
2021/12/17 17:51:21;;;;;;;;;;;;;;;;;;5052778;28;19935;-73
2021/12/17 17:53:46;;;;;;;;;;;;;;;;;;5051847;28;19916;-73
2021/12/17 17:56:12;;;;;;;;;;;;;;;;;;5050992;28;19909;-73
2021/12/17 17:58:38;;;;;;;;;;;;;;;;;;5052759;28;19999;-73
2021/12/17 18:01:04;;;;;;;;;;;;;;;;;;5052814;28;20272;-73
2021/12/17 18:03:30;;;;;;;;;;;;;;;;;;5052958;28;19963;-73
2021/12/17 18:05:58;;;;;;;;;;;;;;;;;;5052183;28;19924;-74
2021/12/17 18:08:24;;;;;;;;;;;;;;;;;;5052791;28;19916;-75
2021/12/17 18:10:49;;;;;;;;;;;;;;;;;;5050738;28;20007;-74
2021/12/17 18:13:19;;;;;;;;;;;;;;;;;;5045824;28;19958;-74
2021/12/17 18:15:45;;;;;;;;;;;;;;;;;;5052301;28;19920;-74
2021/12/17 18:18:11;;;;;;;;;;;;;;;;;;5049267;28;19921;-74
2021/12/17 18:20:37;;;;;;;;;;;;;;;;;;5049216;28;19943;-74
2021/12/17 18:23:02;;;;;;;;;;;;;;;;;;5050874;28;19925;-74
2021/12/17 18:25:28;;;;;;;;;;;;;;;;;;5052142;28;19917;-74
2021/12/17 18:27:54;;;;;;;;;;;;;;;;;;5050272;28;20026;-74
2021/12/17 18:30:20;;;;;;;;;;;;;;;;;;5052458;28;19948;-74
2021/12/17 18:32:46;;;;;;;;;;;;;;;;;;5051812;28;19916;-74
2021/12/17 18:35:12;;;;;;;;;;;;;;;;;;5052129;28;19971;-74
2021/12/17 18:37:38;;;;;;;;;;;;;;;;;;5051215;28;20274;-74
2021/12/17 18:40:05;;;;;;;;;;;;;;;;;;5067261;28;19962;-74
2021/12/17 18:45:15;;;;;;;;;;;;;;;;;;5046496;28;20002;-74
2021/12/17 18:47:41;;;;;;;;;;;;;;;;;;5050897;28;19956;-74
2021/12/17 18:50:07;;;;;;;;;;;;;;;;;;5048687;28;19917;-74
2021/12/17 18:52:33;;;;;;;;;;;;;;;;;;5051939;28;19913;-74
2021/12/17 18:54:58;;;;;;;;;;;;;;;;;;5050518;28;19916;-74
2021/12/17 18:57:24;;;;;;;;;;;;;;;;;;5049147;28;20504;-73
2021/12/17 18:59:50;;;;;;;;;;;;;;;;;;5050107;28;19913;-74
2021/12/17 19:02:16;;;;;;;;;;;;;;;;;;5051705;28;19966;-74
2021/12/17 19:04:42;;;;;;;;;;;;;;;;;;5051103;28;20373;-73
2021/12/17 19:07:08;;;;;;;;;;;;;;;;;;5051829;28;19999;-73
2021/12/17 19:09:34;;;;;;;;;;;;;;;;;;5048478;28;19962;-74
2021/12/17 19:12:00;;;;;;;;;;;;;;;;;;5049950;28;19912;-74
2021/12/17 19:14:28;;;;;;;;;;;;;;;;;;5060409;28;20348;-74
2021/12/17 19:16:54;;;;;;;;;;;;;;;;;;5051562;28;19919;-74
2021/12/17 19:19:25;;;;;;;;;;;;;;;;;;5047679;28;20015;-74
2021/12/17 19:24:23;;;;;;;;;;;;;;;;;;5050851;28;19951;-74
2021/12/17 19:26:49;;;;;;;;;;;;;;;;;;5048772;28;20000;-74
2021/12/17 19:29:15;;;;;;;;;;;;;;;;;;5049169;28;19958;-74
2021/12/17 19:31:42;;;;;;;;;;;;;;;;;;5051108;28;19909;-74
2021/12/17 19:34:08;;;;;;;;;;;;;;;;;;5050190;28;19936;-74
2021/12/17 19:36:35;;;;;;;;;;;;;;;;;;5047092;28;19913;-74
2021/12/17 19:39:01;;;;;;;;;;;;;;;;;;5042695;28;20540;-74
2021/12/17 19:41:27;;;;;;;;;;;;;;;;;;5041816;28;19913;-75
2021/12/17 19:43:53;;;;;;;;;;;;;;;;;;5045106;28;20395;-74
2021/12/17 19:46:23;;;;;;;;;;;;;;;;;;5044459;28;19924;-74
2021/12/17 19:51:37;;;;;;;;;;;;;;;;;;5051051;28;19920;-74